nws-alerts: Checking more than four warning/county codes can delay the loading of your pages. You should use a cron job to get the data.

Nearby METAR Reports

 

PHOG - Kahului, Hawaii, USA
Distance from station: WNW 0mi, 0km
Updated: Sat, 18-May-2024 10:54pm HST
Clear
Clear
 Wind from NE
Wind: NE 8 mph , 13 km/h
Temperature: 75°F , 24°C
Dew Point: 68°F , 20°C
Humidity: 78%
Barometer: 30.09 inHg , 1019 hPa
Clouds: Clear
Visibility: 10 miles , 16 km
2024/05/19 08:54 PHOG 190854Z 05007KT 10SM CLR 24/20 A3009 RMK AO2 SLP193 T02390200 53010
PHJH - Lahaina/West Mau, Hawaii, USA
Distance from station: WNW 16mi, 26km
Updated: Thu, 26-Jan-2023 6:05pm HST
NOT Current
Light drizzle, Scattered
Light drizzle, Scattered
 Wind from NNE
Wind: NNE 13 mph , 20 km/h, Gust: 20 mph , 31 km/h
Barometer: 30.01 inHg , 1016.3 hPa
Summary: Light Drizzle
Clouds: Scattered
Visibility: S miles , 0 km
Cloud details: Scattered 1400 ft
Scattered 2200 ft
Scattered 3000 ft
2023/01/27 04:05 PHJH 270405Z AUTO 02011G17KT SSM -DZ SCT014 SCT022 SCT030 A3001
 
PHNY - Lanai City Airpo, Hawaii, USA
Distance from station: WSW 34mi, 54km
Updated: Sat, 18-May-2024 11:14pm HST
Light rain, Overcast
Light rain, Overcast
 Wind from NE
Wind: NE 5 mph , 7 km/h
Temperature: 70°F , 21°C
Dew Point: 68°F , 20°C
Humidity: 94%
Barometer: 30.17 inHg , 1021.7 hPa
Summary: Light rain
Clouds: Overcast
Visibility: 10 miles , 16 km
Cloud details: Broken 1100 ft
Broken 1700 ft
Overcast 4400 ft
2024/05/19 09:14 PHNY 190914Z AUTO 04004KT 10SM -RA BKN011 BKN017 OVC044 21/20 A3017 RMK AO2 CIG 007V013 P0001
PHMK - Molokai, Hawaii, USA
Distance from station: WNW 47mi, 75km
Updated: Sat, 18-May-2024 10:54pm HST
Light rain, Overcast
Light rain, Overcast
 Wind from calm
Wind: Calm
Temperature: 73°F , 23°C
Dew Point: 70°F , 21°C
Humidity: 89%
Barometer: 30.11 inHg , 1019.6 hPa
Summary: Light rain
Clouds: Overcast
Visibility: 8 miles , 13 km
Cloud details: Few Clouds 6500 ft
Scattered 8000 ft
Overcast 11000 ft
2024/05/19 08:54 PHMK 190854Z AUTO 00000KT 8SM -RA FEW065 SCT080 OVC110 23/21 A3011 RMK AO2 SLP196 P0006 60007 T02280206 53016 TSNO
 
PHKO - Kailua/Kona, Hawaii, USA
Distance from station: SSE 84mi, 136km
Updated: Sat, 18-May-2024 10:53pm HST
Overcast
Overcast
 Wind from NNE
Wind: NNE 8 mph , 13 km/h
Temperature: 77°F , 25°C
Dew Point: 72°F , 22°C
Humidity: 83%
Barometer: 30.07 inHg , 1018.3 hPa
Clouds: Overcast
Visibility: 10 miles , 16 km
Cloud details: Scattered 4200 ft
Overcast 5000 ft
2024/05/19 08:53 PHKO 190853Z AUTO 02007KT 10SM SCT042 OVC050 25/22 A3007 RMK AO2 RAE0757 SLP180 P0000 60000 T02500222 50014
PHNG - Kaneohe Mcas, Hawaii, USA
Distance from station: WNW 94mi, 151km
Updated: Sat, 18-May-2024 10:57pm HST
Light rain, Few clouds
Light rain, Few clouds
 Wind from SE
Wind: SE 14 mph , 22 km/h, Gust: 31 mph , 50 km/h
Temperature: 79°F , 26°C
Dew Point: 73°F , 23°C
Humidity: 84%
Barometer: 30.02 inHg , 1016.6 hPa
Summary: Light rain
Clouds: Few Clouds
Visibility: 10 miles , 16 km
Cloud details: Few Clouds 1700 ft
Few Clouds 11000 ft
2024/05/19 08:57 PHNG 190857Z AUTO 13012G27KT 10SM -RA FEW017 FEW110 26/23 A3002 RMK AO2 PK WND 12027/0846 SLP159 P0003 60004 T02610228 58000
 
PHSF - Bradshaw Aaf/Haw, Hawaii, USA
Distance from station: SE 97mi, 156km
Updated: Sat, 18-May-2024 10:55pm HST
Broken
Broken
 Wind from calm
Wind: Calm
Temperature: 59°F , 15°C
Dew Point: 55°F , 13°C
Humidity: 88%
Barometer: 30.41 inHg , 1029.8 hPa
Clouds: Broken
Visibility: 10 miles , 16 km
Cloud details: Broken 13000 ft
2024/05/19 08:55 PHSF 190855Z AUTO 00000KT 10SM BKN130 15/13 A3041 RMK AO2 SLP162 T01490129 50009 $
PHNL - Honolulu, Hawaii, USA
Distance from station: WNW 100mi, 162km
Updated: Sat, 18-May-2024 10:53pm HST
Light rain, Overcast
Light rain, Overcast
 Wind from E
Wind: E 13 mph , 20 km/h
Temperature: 75°F , 24°C
Dew Point: 72°F , 22°C
Humidity: 89%
Barometer: 30.06 inHg , 1017.9 hPa
Summary: Light rain
Clouds: Overcast
Visibility: 10 miles , 16 km
Cloud details: Scattered 2400 ft
Broken 4500 ft
Overcast 12000 ft
2024/05/19 08:53 PHNL 190853Z 10011KT 10SM -RA SCT024 BKN045 OVC120 24/22 A3006 RMK AO2 SLP178 P0002 60004 T02390217 50021 VISNO RWY04R $
 
PHJR - Kalaeloa, Hawaii, USA
Distance from station: WNW 109mi, 176km
Updated: Sat, 18-May-2024 11:06pm HST
Broken
Broken
 Wind from E
Wind: E 8 mph , 13 km/h
Temperature: 73°F , 23°C
Dew Point: 72°F , 22°C
Humidity: 94%
Barometer: 30.08 inHg , 1018.6 hPa
Clouds: Broken
Visibility: 10 miles , 16 km
Cloud details: Broken 1300 ft
2024/05/19 09:06 PHJR 190906Z AUTO 08007KT 10SM BKN013 23/22 A3008 RMK AO2 T02330222 TSNO
PHHI - Wheeler Afb/Oahu, Hawaii, USA
Distance from station: WNW 112mi, 180km
Updated: Sat, 18-May-2024 10:55pm HST
Clear
Clear
 Wind from S
Wind: S 3 mph , 6 km/h
Temperature: 72°F , 22°C
Dew Point: 66°F , 19°C
Humidity: 83%
Barometer: 30.10 inHg , 1019.3 hPa
Clouds: Clear
Visibility: 10 miles , 16 km
2024/05/19 08:55 PHHI 190855Z AUTO 18003KT 10SM CLR 22/19 A3010 RMK AO2 RAE04DZB09E14DZB16E19 SLP184 P0000 60003 T02200193 50020 $
 
PHTO - Hilo, Hawaii, USA
Distance from station: SE 121mi, 195km
Updated: Sat, 18-May-2024 11:01pm HST
Overcast
Overcast
 Wind from SE
Wind: SE 12 mph , 19 km/h
Temperature: 72°F , 22°C
Dew Point: 70°F , 21°C
Humidity: 94%
Barometer: 30.13 inHg , 1020.3 hPa
Clouds: Overcast
Visibility: 8 miles , 13 km
Cloud details: Broken 2500 ft
Broken 2900 ft
Overcast 6000 ft
2024/05/19 09:01 PHTO 190901Z AUTO 13010KT 8SM BKN025 BKN029 OVC060 22/21 A3013 RMK AO2 T02170211 TSNO
PHLI - Lihue/Kauai Is, Hawaii, USA
Distance from station: WNW 201mi, 323km
Updated: Sat, 18-May-2024 10:53pm HST
Overcast
Overcast
 Wind from S
Wind: S 10 mph , 17 km/h
Temperature: 75°F , 24°C
Dew Point: 72°F , 22°C
Humidity: 89%
Barometer: 30.07 inHg , 1018.3 hPa
Clouds: Overcast
Visibility: 10 miles , 16 km
Cloud details: Few Clouds 1500 ft
Broken 3500 ft
Overcast 4500 ft
2024/05/19 08:53 PHLI 190853Z AUTO 19009KT 10SM FEW015 BKN035 OVC045 24/22 A3007 RMK AO2 SLP180 T02440222 51013 TSNO
 
PHBK - Barking Sands/Ka, Hawaii, USA
Distance from station: WNW 229mi, 369km
Updated: Sat, 18-May-2024 10:58pm HST
Broken
Broken
 Wind from SE
Wind: SE 16 mph , 26 km/h, Gust: 25 mph , 41 km/h
Temperature: 79°F , 26°C
Dew Point: 70°F , 21°C
Humidity: 74%
Barometer: 30.03 inHg , 1016.9 hPa
Clouds: Broken
Visibility: 10 miles , 16 km
Cloud details: Broken 5000 ft
Broken 8000 ft
Broken 9500 ft
2024/05/19 08:58 PHBK 190858Z AUTO 14014G22KT 10SM BKN050 BKN080 BKN095 26/21 A3003 RMK AO2 T02610211 $